Time;durP1;ratioP1;P1;durP2;ratioP2;P2;SDS_P1;SDS_P2;PMS_P1;PMS_P2;Temp;Humidity;BMP_temperature;BMP_pressure;BME280_temperature;BME280_humidity;BME280_pressure;Samples;Min_cycle;Max_cycle;Signal;HPM_P1;HPM_P2
2022/01/23 00:02:30;;;;;;;16.85;10.52;;;5.20;99.90;;;;;;5089886;28;20501;-43
2022/01/23 00:04:56;;;;;;;20.13;11.05;;;5.20;99.90;;;;;;5090066;28;20028;-43
2022/01/23 00:07:22;;;;;;;19.77;10.98;;;5.20;99.90;;;;;;5088845;28;20286;-44
2022/01/23 00:09:48;;;;;;;18.13;10.93;;;5.20;99.90;;;;;;5089815;28;20020;-44
2022/01/23 00:12:15;;;;;;;23.88;11.45;;;5.10;99.90;;;;;;5089842;28;20531;-44
2022/01/23 00:17:27;;;;;;;19.38;10.90;;;5.10;99.90;;;;;;5089520;28;20030;-44
2022/01/23 00:19:56;;;;;;;19.10;10.57;;;5.10;99.90;;;;;;5088569;28;20508;-44
2022/01/23 00:22:33;;;;;;;16.95;10.18;;;5.10;99.90;;;;;;5083545;28;20425;-44
2022/01/23 00:30:29;;;;;;;18.48;11.02;;;5.10;99.90;;;;;;5089447;28;20032;-43
2022/01/23 00:32:58;;;;;;;19.15;10.77;;;5.10;99.90;;;;;;5089755;28;20046;-43
2022/01/23 00:35:24;;;;;;;22.17;10.18;;;5.00;99.90;;;;;;5089802;28;20021;-44
2022/01/23 00:37:50;;;;;;;16.33;11.07;;;5.10;99.90;;;;;;5088794;28;20024;-44
2022/01/23 00:40:16;;;;;;;18.25;11.60;;;5.10;99.90;;;;;;5089806;28;20020;-44
2022/01/23 00:42:42;;;;;;;20.63;12.90;;;5.00;99.90;;;;;;5089707;28;20085;-43
2022/01/23 00:47:39;;;;;;;;;;;5.00;99.90;;;;;;5089194;28;20035;-44
2022/01/23 00:50:05;;;;;;;18.65;11.40;;;5.00;99.90;;;;;;5089341;28;20277;-44
2022/01/23 00:52:30;;;;;;;21.13;12.25;;;5.00;99.90;;;;;;5084626;28;20142;-43
2022/01/23 00:54:55;;;;;;;19.98;11.48;;;5.00;99.90;;;;;;5079517;28;20500;-43
2022/01/23 00:57:21;;;;;;;20.15;11.65;;;5.00;99.90;;;;;;5088838;28;20032;-43
2022/01/23 00:59:47;;;;;;;21.42;11.93;;;5.00;99.90;;;;;;5089357;28;20412;-44
2022/01/23 01:02:12;;;;;;;22.40;11.23;;;5.10;99.90;;;;;;5089370;28;20375;-44
2022/01/23 01:04:38;;;;;;;19.70;11.85;;;5.10;99.90;;;;;;5089570;28;20028;-43
2022/01/23 01:07:03;;;;;;;22.13;12.00;;;5.10;99.90;;;;;;5088667;28;20401;-44
2022/01/23 01:09:30;;;;;;;22.83;11.80;;;5.10;99.90;;;;;;5088136;28;20024;-44
2022/01/23 01:12:03;;;;;;;17.95;11.82;;;5.10;99.90;;;;;;5089093;28;20012;-43
2022/01/23 01:17:12;;;;;;;23.08;12.07;;;5.10;99.90;;;;;;5089157;28;20027;-46
2022/01/23 01:30:42;;;;;;;17.60;10.90;;;5.10;99.90;;;;;;5088892;28;20089;-43
2022/01/23 01:33:21;;;;;;;18.67;11.80;;;5.10;99.90;;;;;;5088847;28;20405;-43
2022/01/23 01:36:16;;;;;;;17.17;11.20;;;5.10;99.90;;;;;;5088881;28;20028;-46
2022/01/23 01:38:42;;;;;;;19.67;10.30;;;5.10;99.90;;;;;;5087803;28;20366;-43
2022/01/23 01:41:07;;;;;;;19.60;10.38;;;5.10;99.90;;;;;;5088931;28;20051;-44
2022/01/23 01:43:33;;;;;;;18.00;10.13;;;5.10;99.90;;;;;;5087472;28;20293;-43
2022/01/23 01:45:58;;;;;;;18.60;10.52;;;5.20;99.90;;;;;;5087394;28;20024;-42
2022/01/23 01:48:25;;;;;;;17.65;9.73;;;5.20;99.90;;;;;;5087954;28;20114;-44
2022/01/23 01:50:54;;;;;;;18.63;9.45;;;5.10;99.90;;;;;;5088479;28;20021;-43
2022/01/23 01:53:21;;;;;;;16.63;9.40;;;5.20;99.90;;;;;;5080141;28;20107;-43
2022/01/23 01:55:51;;;;;;;13.98;7.90;;;5.10;99.90;;;;;;5084250;28;20093;-43
2022/01/23 01:58:55;;;;;;;14.95;9.00;;;5.20;99.90;;;;;;5087742;28;20039;-44
2022/01/23 02:09:22;;;;;;;14.77;9.18;;;5.20;99.90;;;;;;5087862;28;20038;-44
2022/01/23 02:15:07;;;;;;;15.93;9.35;;;5.20;99.90;;;;;;5088429;28;20401;-45
2022/01/23 02:17:59;;;;;;;14.38;8.68;;;5.20;99.90;;;;;;5086540;28;20462;-44
2022/01/23 02:50:43;;;;;;;16.08;9.07;;;5.20;99.90;;;;;;5091744;28;20436;-43
2022/01/23 02:53:31;;;;;;;13.93;8.65;;;5.20;99.90;;;;;;5083929;28;20024;-43
2022/01/23 02:55:59;;;;;;;15.15;9.13;;;5.20;99.90;;;;;;5087460;28;20501;-42
2022/01/23 02:58:32;;;;;;;15.45;8.80;;;5.20;99.90;;;;;;5091017;28;20027;-43
2022/01/23 03:01:12;;;;;;;15.95;8.98;;;5.20;99.90;;;;;;5091673;28;20024;-42
2022/01/23 03:03:43;;;;;;;13.45;8.55;;;5.20;99.90;;;;;;5091629;28;20535;-44
2022/01/23 03:11:55;;;;;;;16.73;10.00;;;5.20;99.90;;;;;;5091607;28;20329;-47
2022/01/23 03:30:15;;;;;;;19.67;10.45;;;5.10;99.90;;;;;;5050914;28;20040;-44
2022/01/23 03:32:45;;;;;;;19.25;11.65;;;5.20;99.90;;;;;;5053343;28;20739;-42
2022/01/23 03:35:12;;;;;;;18.77;10.82;;;5.20;99.90;;;;;;5058192;28;20250;-43
2022/01/23 03:37:37;;;;;;;20.13;10.68;;;5.10;99.90;;;;;;5069837;28;20102;-45
2022/01/23 03:40:05;;;;;;;19.60;11.07;;;5.10;99.90;;;;;;5071020;28;20060;-43
2022/01/23 03:42:33;;;;;;;19.90;11.68;;;5.10;99.90;;;;;;5070556;28;20115;-44
2022/01/23 03:45:24;;;;;;;20.95;11.30;;;5.20;99.90;;;;;;5070583;28;20099;-46
2022/01/23 03:49:30;;;;;;;23.70;11.70;;;5.20;99.90;;;;;;5068677;28;20066;-43
2022/01/23 03:50:45;;;;;;;24.83;12.02;;;5.20;99.90;;;;;;5070263;28;20064;-44
2022/01/23 03:53:11;;;;;;;18.95;11.02;;;5.20;99.90;;;;;;5078408;28;20073;-43
2022/01/23 03:55:37;;;;;;;26.17;11.13;;;5.20;99.90;;;;;;5083537;28;20158;-43
2022/01/23 03:58:03;;;;;;;18.35;11.35;;;5.20;99.90;;;;;;5089778;28;20028;-44
2022/01/23 04:00:29;;;;;;;20.20;11.68;;;5.20;99.90;;;;;;5090604;28;20020;-43
2022/01/23 04:02:55;;;;;;;22.90;11.90;;;5.20;99.90;;;;;;5090337;28;20367;-44
2022/01/23 04:05:21;;;;;;;16.33;9.85;;;5.20;99.90;;;;;;5090591;28;20035;-43
2022/01/23 04:07:47;;;;;;;19.95;11.65;;;5.30;99.90;;;;;;5089316;28;20028;-43
2022/01/23 04:10:15;;;;;;;21.13;12.32;;;5.20;99.90;;;;;;5090272;28;20126;-43
2022/01/23 04:15:25;;;;;;;19.20;11.02;;;5.20;99.90;;;;;;5090525;28;20101;-45
2022/01/23 04:34:37;;;;;;;21.08;11.38;;;5.20;99.90;;;;;;5090034;28;20077;-43
2022/01/23 04:45:17;;;;;;;18.88;10.20;;;5.20;99.90;;;;;;5089433;28;20448;-43
2022/01/23 04:45:33;;;;;;;20.38;10.95;;;5.20;99.90;;;;;;5089888;28;20547;-43
2022/01/23 05:06:56;;;;;;;22.10;12.65;;;5.10;99.90;;;;;;5089540;28;20035;-43
2022/01/23 05:09:22;;;;;;;28.55;13.23;;;5.10;99.90;;;;;;5088224;28;20495;-44
2022/01/23 05:11:50;;;;;;;23.08;12.70;;;5.10;99.90;;;;;;5088994;28;20024;-45
2022/01/23 05:14:26;;;;;;;25.45;13.45;;;5.10;99.90;;;;;;5089148;28;20516;-44
2022/01/23 05:16:52;;;;;;;22.60;13.30;;;5.10;99.90;;;;;;5089142;28;20113;-44
2022/01/23 05:19:17;;;;;;;24.42;13.02;;;5.20;99.90;;;;;;5088234;28;20038;-47
2022/01/23 05:24:19;;;;;;;23.40;13.43;;;5.10;99.90;;;;;;5080206;28;20031;-44
2022/01/23 05:26:46;;;;;;;25.98;13.40;;;5.10;99.90;;;;;;5088943;28;20024;-44
2022/01/23 05:29:13;;;;;;;26.88;13.57;;;5.10;99.90;;;;;;5088282;28;20062;-43
2022/01/23 05:31:39;;;;;;;29.50;13.70;;;5.10;99.90;;;;;;5088827;28;20250;-44
2022/01/23 05:34:05;;;;;;;22.60;13.13;;;5.10;99.90;;;;;;5087474;28;20027;-43
2022/01/23 05:36:31;;;;;;;26.30;13.98;;;5.10;99.90;;;;;;5088824;28;20097;-44
2022/01/23 05:38:57;;;;;;;25.02;13.10;;;5.10;99.90;;;;;;5087937;28;20605;-44
2022/01/23 05:41:22;;;;;;;25.75;14.10;;;5.10;99.90;;;;;;5087399;28;20428;-45
2022/01/23 05:43:48;;;;;;;29.05;14.18;;;5.10;99.90;;;;;;5088651;28;20369;-46
2022/01/23 05:46:13;;;;;;;27.00;13.05;;;5.10;99.90;;;;;;5088663;28;20413;-44
2022/01/23 05:48:39;;;;;;;24.45;13.45;;;5.20;99.90;;;;;;5087847;28;20398;-44
2022/01/23 05:51:06;;;;;;;27.85;14.05;;;5.20;99.90;;;;;;5087250;28;20024;-44
2022/01/23 05:53:32;;;;;;;26.35;13.32;;;5.20;99.90;;;;;;5081409;28;20012;-45
2022/01/23 05:55:57;;;;;;;28.55;13.00;;;5.20;99.90;;;;;;5090016;28;20050;-44
2022/01/23 05:58:23;;;;;;;29.38;14.70;;;5.20;99.90;;;;;;5092162;28;20020;-44
2022/01/23 06:00:49;;;;;;;28.80;14.38;;;5.20;99.90;;;;;;5092515;28;20417;-44
2022/01/23 06:03:15;;;;;;;25.85;13.95;;;5.20;99.90;;;;;;5092593;28;20039;-44
2022/01/23 06:05:40;;;;;;;26.40;14.80;;;5.20;99.90;;;;;;5062962;28;20070;-43
2022/01/23 06:08:06;;;;;;;28.08;14.15;;;5.20;99.90;;;;;;5051469;28;20041;-43
2022/01/23 06:10:46;;;;;;;27.35;14.63;;;5.20;99.90;;;;;;5071001;28;20123;-44
2022/01/23 06:13:12;;;;;;;39.65;14.23;;;5.30;99.90;;;;;;5071552;28;20109;-44
2022/01/23 06:15:37;;;;;;;29.80;15.20;;;5.20;99.90;;;;;;5068808;28;20036;-44
2022/01/23 06:18:03;;;;;;;26.15;13.93;;;5.20;99.90;;;;;;5059341;28;20028;-44
2022/01/23 06:20:28;;;;;;;24.45;13.57;;;5.30;99.90;;;;;;5060939;28;20029;-45
2022/01/23 06:22:54;;;;;;;27.05;14.82;;;5.30;99.90;;;;;;5064239;28;20486;-44
2022/01/23 06:25:20;;;;;;;28.08;14.70;;;5.20;99.90;;;;;;5066300;28;20085;-44
2022/01/23 06:27:46;;;;;;;26.17;14.02;;;5.20;99.90;;;;;;5062336;28;20241;-45
2022/01/23 06:30:11;;;;;;;23.40;13.40;;;5.20;99.90;;;;;;5060826;28;20107;-44
2022/01/23 06:32:38;;;;;;;25.25;14.50;;;5.30;99.90;;;;;;5061159;28;20103;-43
2022/01/23 06:35:04;;;;;;;28.45;14.25;;;5.30;99.90;;;;;;5062551;28;20028;-43
2022/01/23 06:37:29;;;;;;;29.77;14.35;;;5.30;99.90;;;;;;5059742;28;20497;-44
2022/01/23 06:39:55;;;;;;;27.92;13.85;;;5.30;99.90;;;;;;5061407;28;20095;-45
2022/01/23 06:42:20;;;;;;;23.98;13.38;;;5.30;99.90;;;;;;5059538;28;20033;-45
2022/01/23 06:44:46;;;;;;;26.10;13.57;;;5.20;99.90;;;;;;5062191;28;20034;-45
2022/01/23 06:47:11;;;;;;;27.52;14.32;;;5.20;99.90;;;;;;5053203;28;20087;-44
2022/01/23 06:49:37;;;;;;;26.67;14.18;;;5.30;99.90;;;;;;5051081;28;20060;-46
2022/01/23 06:52:03;;;;;;;27.05;14.82;;;5.30;99.90;;;;;;5055581;28;20035;-43
2022/01/23 06:54:28;;;;;;;26.90;14.23;;;5.20;99.90;;;;;;5082363;28;20101;-44
2022/01/23 06:56:55;;;;;;;25.73;14.50;;;5.30;99.90;;;;;;5092135;28;20021;-44
2022/01/23 06:59:20;;;;;;;28.67;14.40;;;5.20;99.90;;;;;;5091183;28;20024;-43
2022/01/23 07:01:46;;;;;;;26.80;14.30;;;5.20;99.90;;;;;;5091681;28;20048;-44
2022/01/23 07:04:11;;;;;;;26.00;14.02;;;5.20;99.90;;;;;;5091666;28;20398;-44
2022/01/23 07:06:37;;;;;;;24.70;13.57;;;5.20;99.90;;;;;;5090917;28;20068;-45
2022/01/23 07:09:02;;;;;;;27.90;14.80;;;5.30;99.90;;;;;;5089429;28;20590;-44
2022/01/23 07:11:28;;;;;;;26.90;14.35;;;5.30;99.90;;;;;;5091304;28;20020;-44
2022/01/23 07:13:53;;;;;;;25.33;14.13;;;5.30;99.90;;;;;;5091306;28;20020;-44
2022/01/23 07:16:19;;;;;;;24.23;13.95;;;5.30;99.90;;;;;;5089962;28;20710;-44
2022/01/23 07:18:44;;;;;;;31.77;14.63;;;5.20;99.90;;;;;;5090700;28;20028;-44
2022/01/23 07:21:11;;;;;;;24.35;13.50;;;5.30;99.90;;;;;;5090996;28;20103;-44
2022/01/23 07:23:36;;;;;;;22.77;13.05;;;5.30;99.90;;;;;;5083240;28;20032;-44
2022/01/23 07:26:02;;;;;;;24.38;13.82;;;5.30;99.90;;;;;;5085569;28;20635;-43
2022/01/23 07:28:37;;;;;;;27.55;14.43;;;5.30;99.90;;;;;;5072764;28;20024;-44
2022/01/23 07:31:05;;;;;;;28.13;13.93;;;5.30;99.90;;;;;;5065865;28;20318;-44
2022/01/23 07:33:33;;;;;;;24.63;12.95;;;5.30;99.90;;;;;;5061835;28;20013;-43
2022/01/23 07:35:59;;;;;;;22.95;13.27;;;5.30;99.90;;;;;;5063737;28;20100;-43
2022/01/23 07:38:24;;;;;;;25.52;12.57;;;5.30;99.90;;;;;;5059407;28;20124;-43
2022/01/23 07:40:50;;;;;;;24.85;12.25;;;5.30;99.90;;;;;;5062153;28;20028;-43
2022/01/23 07:43:16;;;;;;;26.52;13.52;;;5.30;99.90;;;;;;5061332;28;20009;-43
2022/01/23 07:45:41;;;;;;;24.77;12.60;;;5.30;99.90;;;;;;5059697;28;20036;-44
2022/01/23 07:48:07;;;;;;;22.30;11.35;;;5.30;99.90;;;;;;5060252;28;20368;-43
2022/01/23 07:50:33;;;;;;;20.90;12.60;;;5.40;99.90;;;;;;5059383;28;20112;-43
2022/01/23 07:52:59;;;;;;;21.92;12.77;;;5.40;99.90;;;;;;5063971;28;20021;-44
2022/01/23 07:55:24;;;;;;;24.83;12.43;;;5.40;99.90;;;;;;5062289;28;20031;-43
2022/01/23 07:57:52;;;;;;;23.63;13.07;;;5.40;99.90;;;;;;5060068;28;20038;-44
2022/01/23 08:00:18;;;;;;;24.48;11.55;;;5.40;99.90;;;;;;5060011;28;20025;-43
2022/01/23 08:02:44;;;;;;;22.15;12.10;;;5.40;99.90;;;;;;5050834;28;20029;-44
2022/01/23 08:05:10;;;;;;;19.00;11.90;;;5.50;99.90;;;;;;5050165;28;20033;-44
2022/01/23 08:07:36;;;;;;;20.95;12.25;;;5.40;99.90;;;;;;5049192;28;20043;-44
2022/01/23 08:10:05;;;;;;;22.95;12.52;;;5.50;99.90;;;;;;5049977;28;20028;-44
2022/01/23 08:12:32;;;;;;;21.52;12.05;;;5.50;99.90;;;;;;5050117;28;20067;-44
2022/01/23 08:14:59;;;;;;;18.98;10.88;;;5.50;99.90;;;;;;5050107;28;20086;-45
2022/01/23 08:17:25;;;;;;;20.33;11.40;;;5.50;99.90;;;;;;5048109;28;20053;-44
2022/01/23 08:19:57;;;;;;;19.63;10.55;;;5.50;99.90;;;;;;5049990;28;20029;-45
2022/01/23 08:22:24;;;;;;;19.88;12.30;;;5.50;99.90;;;;;;5056831;28;20554;-44
2022/01/23 08:24:51;;;;;;;19.10;11.73;;;5.50;99.90;;;;;;5081558;28;20489;-43
2022/01/23 08:27:17;;;;;;;22.63;11.82;;;5.50;99.90;;;;;;5089464;28;20111;-44
2022/01/23 08:29:44;;;;;;;22.02;12.63;;;5.60;99.90;;;;;;5088516;28;20055;-43
2022/01/23 08:32:10;;;;;;;21.13;12.13;;;5.60;99.90;;;;;;5077743;28;20171;-44
2022/01/23 08:34:37;;;;;;;19.83;12.10;;;5.60;99.90;;;;;;5069574;28;20099;-44
2022/01/23 08:37:04;;;;;;;19.85;11.00;;;5.60;99.90;;;;;;5069310;28;20024;-44
2022/01/23 08:39:32;;;;;;;20.05;11.50;;;5.60;99.90;;;;;;5068549;28;20035;-43
2022/01/23 08:41:57;;;;;;;22.70;12.05;;;5.60;99.90;;;;;;5069547;28;20274;-43
2022/01/23 08:44:25;;;;;;;20.45;11.20;;;5.60;99.90;;;;;;5067976;28;20030;-43
2022/01/23 08:46:53;;;;;;;19.15;10.98;;;5.60;99.90;;;;;;5069432;28;20023;-44
2022/01/23 08:49:21;;;;;;;18.98;11.10;;;5.70;99.90;;;;;;5068537;28;20039;-44
2022/01/23 08:51:48;;;;;;;19.00;11.48;;;5.70;99.90;;;;;;5068382;28;20490;-44
2022/01/23 08:54:14;;;;;;;19.58;12.00;;;5.70;99.90;;;;;;5064264;28;20735;-44
2022/01/23 08:56:39;;;;;;;18.98;11.32;;;5.70;99.90;;;;;;5063349;28;20105;-43
2022/01/23 08:59:05;;;;;;;17.00;10.55;;;5.70;99.90;;;;;;5068696;28;20016;-43
2022/01/23 09:01:32;;;;;;;18.92;11.18;;;5.70;99.90;;;;;;5067615;28;20337;-44
2022/01/23 09:03:57;;;;;;;20.33;11.02;;;5.70;99.90;;;;;;5067764;28;20492;-45
2022/01/23 09:06:23;;;;;;;18.73;11.35;;;5.70;99.90;;;;;;5068754;28;20099;-43
2022/01/23 09:08:51;;;;;;;17.90;11.45;;;5.70;99.90;;;;;;5067969;28;20029;-44
2022/01/23 09:11:37;;;;;;;19.77;11.43;;;5.80;99.90;;;;;;5068902;28;20056;-44
2022/01/23 09:14:10;;;;;;;18.23;10.73;;;5.80;99.90;;;;;;5068861;28;20436;-45
2022/01/23 09:16:43;;;;;;;16.63;10.35;;;5.80;99.90;;;;;;5068783;28;20020;-44
2022/01/23 09:19:10;;;;;;;15.63;10.50;;;5.80;99.90;;;;;;5067083;28;20470;-44
2022/01/23 09:21:37;;;;;;;16.00;10.30;;;5.80;99.90;;;;;;5069181;28;20036;-43
2022/01/23 09:24:03;;;;;;;18.20;10.25;;;5.80;99.90;;;;;;5076044;28;20012;-43
2022/01/23 09:26:28;;;;;;;16.88;10.65;;;5.80;99.90;;;;;;5080983;28;20046;-45
2022/01/23 09:28:57;;;;;;;16.73;10.50;;;5.90;99.90;;;;;;5088033;28;20024;-46
2022/01/23 09:31:28;;;;;;;15.55;10.27;;;5.90;99.90;;;;;;5088998;28;20526;-44
2022/01/23 09:33:55;;;;;;;19.30;10.57;;;5.90;99.90;;;;;;5089026;28;20016;-45
2022/01/23 09:36:20;;;;;;;18.58;11.18;;;6.00;99.90;;;;;;5088783;28;20024;-44
2022/01/23 09:38:46;;;;;;;17.63;9.45;;;6.00;99.90;;;;;;5087947;28;20020;-43
2022/01/23 09:41:17;;;;;;;16.55;9.48;;;6.00;99.90;;;;;;5088551;28;20051;-44
2022/01/23 09:43:43;;;;;;;;;;;6.00;99.90;;;;;;5089031;28;20028;-44
2022/01/23 09:46:08;;;;;;;14.02;9.68;;;6.00;99.90;;;;;;5089887;28;19957;-45
2022/01/23 09:48:36;;;;;;;16.15;10.65;;;6.00;99.90;;;;;;5089552;28;20031;-44
2022/01/23 09:51:03;;;;;;;16.83;10.65;;;6.10;99.90;;;;;;5090450;28;20044;-44
2022/01/23 09:53:30;;;;;;;17.15;10.57;;;6.10;99.90;;;;;;5080640;28;20020;-45
2022/01/23 09:56:03;;;;;;;16.27;10.13;;;6.10;99.90;;;;;;5078701;28;20024;-44
2022/01/23 09:58:29;;;;;;;20.52;10.82;;;6.10;99.90;;;;;;5088140;28;20635;-45
2022/01/23 10:00:55;;;;;;;27.05;10.20;;;6.20;99.90;;;;;;5088517;28;20115;-43
2022/01/23 10:03:21;;;;;;;20.92;11.25;;;6.10;99.90;;;;;;5088605;28;20110;-43
2022/01/23 10:05:51;;;;;;;18.15;10.98;;;6.20;99.90;;;;;;5088493;28;20543;-43
2022/01/23 10:08:18;;;;;;;16.17;9.95;;;6.20;99.90;;;;;;5088211;28;20046;-43
2022/01/23 10:10:50;;;;;;;17.08;10.43;;;6.20;99.90;;;;;;5088411;28;20027;-44
2022/01/23 10:13:16;;;;;;;16.50;10.63;;;6.30;99.90;;;;;;5088780;28;20024;-43
2022/01/23 10:15:42;;;;;;;14.85;9.57;;;6.30;99.90;;;;;;5088658;28;20056;-45
2022/01/23 10:18:07;;;;;;;15.90;10.18;;;6.30;99.90;;;;;;5088049;28;20055;-44
2022/01/23 10:20:33;;;;;;;16.27;10.15;;;6.30;99.90;;;;;;5088522;28;20024;-44
2022/01/23 10:22:59;;;;;;;15.40;9.73;;;6.30;99.90;;;;;;5080130;28;20028;-44
2022/01/23 10:25:28;;;;;;;16.20;9.10;;;6.30;99.90;;;;;;5079787;28;20076;-45
2022/01/23 10:28:04;;;;;;;17.55;10.88;;;6.30;99.90;;;;;;5087732;28;20073;-44
2022/01/23 10:30:37;;;;;;;18.10;10.45;;;6.30;99.90;;;;;;5088380;28;20055;-44
2022/01/23 10:33:23;;;;;;;16.00;10.05;;;6.30;99.90;;;;;;5086957;28;20397;-44
2022/01/23 10:36:11;;;;;;;20.30;10.70;;;6.30;99.90;;;;;;5082159;28;20446;-47
2022/01/23 10:38:53;;;;;;;16.98;9.93;;;6.40;99.90;;;;;;5055626;28;20112;-45
2022/01/23 10:47:29;;;;;;;16.15;9.55;;;6.40;99.90;;;;;;5059966;28;20083;-44
2022/01/23 10:49:56;;;;;;;13.90;9.10;;;6.40;99.90;;;;;;5061358;28;20028;-46
2022/01/23 10:52:38;;;;;;;17.75;9.65;;;6.40;99.90;;;;;;5063444;28;20024;-46
2022/01/23 10:55:12;;;;;;;15.93;9.85;;;6.40;99.90;;;;;;5070655;28;20466;-46
2022/01/23 10:57:40;;;;;;;17.23;10.63;;;6.30;99.90;;;;;;5060595;28;20040;-44
2022/01/23 11:00:09;;;;;;;22.05;10.57;;;6.30;99.90;;;;;;5060734;28;20359;-45
2022/01/23 11:02:39;;;;;;;17.38;11.15;;;6.40;99.90;;;;;;5060829;28;20017;-45
2022/01/23 11:05:07;;;;;;;17.52;10.18;;;6.30;99.90;;;;;;5060997;28;20067;-44
2022/01/23 11:07:34;;;;;;;17.02;9.32;;;6.30;99.90;;;;;;5059742;28;20060;-44
2022/01/23 11:10:04;;;;;;;20.80;10.63;;;6.30;99.90;;;;;;5059913;28;20025;-46
2022/01/23 11:18:00;;;;;;;16.63;10.10;;;6.40;99.90;;;;;;5058922;28;20028;-46
2022/01/23 11:20:38;;;;;;;16.55;10.13;;;6.40;99.90;;;;;;5058878;28;20430;-45
2022/01/23 11:23:11;;;;;;;17.25;10.25;;;6.40;99.90;;;;;;5063206;28;20119;-47
2022/01/23 11:25:42;;;;;;;16.42;10.63;;;6.40;99.90;;;;;;5067123;28;20478;-44
2022/01/23 11:28:07;;;;;;;15.18;10.00;;;6.40;99.90;;;;;;5057156;28;20029;-43
2022/01/23 11:30:45;;;;;;;18.63;11.07;;;6.50;99.90;;;;;;5060494;28;20028;-45
2022/01/23 11:33:15;;;;;;;15.38;9.63;;;6.40;99.90;;;;;;5060413;28;20043;-43
2022/01/23 11:35:41;;;;;;;17.58;10.13;;;6.50;99.90;;;;;;5059827;28;20524;-44
2022/01/23 11:38:12;;;;;;;18.35;9.65;;;6.50;99.90;;;;;;5057812;28;20025;-44
2022/01/23 11:54:05;;;;;;;15.95;9.95;;;6.70;99.90;;;;;;5066557;28;20040;-42
2022/01/23 11:56:35;;;;;;;16.20;9.40;;;6.70;99.90;;;;;;5063235;28;20067;-46
2022/01/23 11:59:10;;;;;;;15.20;9.55;;;6.70;99.90;;;;;;5061128;28;20031;-43
2022/01/23 12:01:39;;;;;;;16.02;9.55;;;6.80;99.90;;;;;;5060361;28;20049;-46
2022/01/23 12:04:14;;;;;;;15.48;9.52;;;6.80;99.90;;;;;;5066880;28;20028;-47
2022/01/23 12:06:42;;;;;;;16.10;9.25;;;6.80;99.90;;;;;;5069552;28;20177;-46
2022/01/23 12:09:13;;;;;;;13.43;8.55;;;6.80;99.90;;;;;;5070678;28;20048;-44
2022/01/23 12:11:42;;;;;;;16.40;8.75;;;6.90;99.90;;;;;;5071557;28;20116;-43
2022/01/23 12:16:56;;;;;;;13.25;9.50;;;6.90;99.90;;;;;;5071691;28;20469;-47
2022/01/23 12:19:24;;;;;;;13.63;9.32;;;6.90;99.90;;;;;;5070766;28;20035;-43
2022/01/23 12:21:53;;;;;;;15.98;9.40;;;6.90;99.90;;;;;;5065296;28;20039;-44
2022/01/23 12:24:20;;;;;;;13.93;8.63;;;6.90;99.90;;;;;;5068988;28;20024;-45
2022/01/23 12:26:48;;;;;;;13.75;8.25;;;7.00;99.90;;;;;;5069661;28;20032;-44
2022/01/23 12:29:23;;;;;;;12.52;8.13;;;6.90;99.90;;;;;;5056765;28;20029;-44
2022/01/23 12:31:50;;;;;;;12.93;9.00;;;7.00;99.90;;;;;;5061736;28;20077;-45
2022/01/23 12:34:15;;;;;;;12.60;8.25;;;7.00;99.90;;;;;;5064680;28;20075;-43
2022/01/23 12:36:41;;;;;;;11.00;7.38;;;6.90;99.90;;;;;;5049359;28;20391;-46
2022/01/23 12:39:06;;;;;;;15.68;8.00;;;7.00;99.90;;;;;;5067606;28;20052;-46
2022/01/23 12:41:37;;;;;;;11.13;7.60;;;7.00;99.90;;;;;;5069327;28;20029;-43
2022/01/23 12:44:22;;;;;;;13.93;8.23;;;7.10;99.90;;;;;;5068405;28;20056;-43
2022/01/23 12:46:51;;;;;;;10.27;7.15;;;7.00;99.90;;;;;;5069118;28;20103;-43
2022/01/23 12:49:16;;;;;;;11.57;7.78;;;7.00;99.90;;;;;;5068093;28;20035;-43
2022/01/23 12:51:42;;;;;;;11.98;7.47;;;7.10;99.90;;;;;;5068831;28;20025;-44
2022/01/23 12:54:16;;;;;;;11.20;7.22;;;7.10;99.90;;;;;;5076788;28;20027;-43
2022/01/23 12:56:44;;;;;;;10.50;7.35;;;7.10;99.90;;;;;;5083889;28;20481;-43
2022/01/23 12:59:15;;;;;;;10.02;7.53;;;7.10;99.90;;;;;;5087314;28;20061;-43
2022/01/23 13:01:44;;;;;;;12.38;7.90;;;7.10;99.90;;;;;;5089307;28;20073;-44
2022/01/23 13:04:10;;;;;;;13.63;7.73;;;7.10;99.90;;;;;;5088633;28;20024;-45
2022/01/23 13:06:51;;;;;;;10.90;7.70;;;7.10;99.90;;;;;;5087716;28;20107;-44
2022/01/23 13:09:30;;;;;;;10.65;7.70;;;7.20;99.90;;;;;;5088444;28;20026;-44
2022/01/23 13:17:55;;;;;;;10.18;7.28;;;7.10;99.90;;;;;;5088650;28;20027;-44
2022/01/23 13:31:51;;;;;;;14.57;7.97;;;7.10;99.90;;;;;;5089042;28;20085;-44
2022/01/23 13:34:21;;;;;;;11.65;7.53;;;7.10;99.90;;;;;;5088863;28;20119;-44
2022/01/23 13:36:58;;;;;;;12.65;8.25;;;7.10;99.90;;;;;;5087661;28;20382;-45
2022/01/23 13:39:28;;;;;;;12.73;7.85;;;7.10;99.90;;;;;;5087893;28;20047;-45
2022/01/23 13:42:26;;;;;;;11.65;7.32;;;7.10;99.90;;;;;;5088906;28;20036;-42
2022/01/23 13:54:04;;;;;;;12.98;8.10;;;7.10;99.90;;;;;;5082639;28;20056;-42
2022/01/23 14:02:29;;;;;;;16.65;9.00;;;7.10;99.90;;;;;;5088925;28;20036;-43
2022/01/23 14:05:02;;;;;;;14.23;8.95;;;7.10;99.90;;;;;;5088513;28;20032;-42
2022/01/23 14:07:28;;;;;;;12.80;8.73;;;7.10;99.90;;;;;;5087825;28;20028;-43
2022/01/23 14:09:57;;;;;;;14.23;8.70;;;7.10;99.90;;;;;;5088211;28;20031;-45
2022/01/23 14:12:24;;;;;;;14.98;8.80;;;7.10;99.90;;;;;;5088314;28;20024;-44
2022/01/23 14:14:56;;;;;;;13.18;8.07;;;7.10;99.90;;;;;;5088303;28;20035;-44
2022/01/23 14:17:25;;;;;;;12.75;8.48;;;7.10;99.90;;;;;;5091163;28;20497;-43
2022/01/23 14:20:07;;;;;;;16.48;9.43;;;7.10;99.90;;;;;;5091216;28;20122;-45
2022/01/23 14:22:35;;;;;;;14.32;8.50;;;7.10;99.90;;;;;;5087944;28;20028;-42
2022/01/23 14:25:16;;;;;;;15.35;8.50;;;7.10;99.90;;;;;;5081346;28;20048;-46
2022/01/23 14:27:45;;;;;;;11.75;8.32;;;7.00;99.90;;;;;;5085717;28;20035;-43
2022/01/23 14:30:15;;;;;;;10.10;7.45;;;7.00;99.90;;;;;;5074866;28;20024;-43
2022/01/23 14:32:53;;;;;;;13.02;8.23;;;7.00;99.90;;;;;;5091944;28;20513;-43
2022/01/23 14:35:20;;;;;;;12.73;7.93;;;7.00;99.90;;;;;;5071383;28;20054;-43
2022/01/23 14:37:48;;;;;;;12.05;8.30;;;7.00;99.90;;;;;;5065157;28;20016;-43
2022/01/23 14:40:21;;;;;;;14.07;8.38;;;7.00;99.90;;;;;;5069272;28;20044;-43
2022/01/23 14:43:07;;;;;;;12.90;8.68;;;7.00;99.90;;;;;;5069549;28;20032;-43
2022/01/23 14:45:42;;;;;;;16.00;9.40;;;7.00;99.90;;;;;;5049201;28;20533;-42
2022/01/23 14:48:08;;;;;;;12.30;8.50;;;7.00;99.90;;;;;;5050089;28;20481;-42
2022/01/23 14:50:37;;;;;;;14.10;8.05;;;7.00;99.90;;;;;;5050675;28;20036;-43
2022/01/23 14:53:12;;;;;;;15.25;8.00;;;7.00;99.90;;;;;;5058728;28;20643;-44
2022/01/23 14:55:43;;;;;;;13.15;8.75;;;7.00;99.90;;;;;;5082439;28;20020;-43
2022/01/23 14:58:11;;;;;;;15.57;9.15;;;6.90;99.90;;;;;;5089824;28;20020;-44
2022/01/23 15:00:37;;;;;;;13.98;8.60;;;7.00;99.90;;;;;;5091133;28;20020;-44
2022/01/23 15:03:04;;;;;;;15.13;9.45;;;6.90;99.90;;;;;;5087226;28;20020;-46
2022/01/23 15:05:32;;;;;;;15.93;9.52;;;7.00;99.90;;;;;;5063184;28;20265;-44
2022/01/23 15:07:59;;;;;;;15.48;10.32;;;7.00;99.90;;;;;;5057629;28;20024;-45
2022/01/23 15:10:25;;;;;;;13.98;8.77;;;7.00;99.90;;;;;;5060478;28;20029;-46
2022/01/23 15:12:50;;;;;;;18.17;11.10;;;7.00;99.90;;;;;;5059199;28;20021;-44
2022/01/23 15:15:16;;;;;;;19.45;12.02;;;6.90;99.90;;;;;;5070406;28;20036;-45
2022/01/23 15:17:41;;;;;;;17.58;11.48;;;6.90;99.90;;;;;;5058437;28;20428;-45
2022/01/23 15:20:08;;;;;;;17.17;11.02;;;6.90;99.90;;;;;;5071555;28;20089;-45
2022/01/23 15:22:33;;;;;;;22.95;11.55;;;6.90;99.90;;;;;;5079858;28;20024;-45
2022/01/23 15:25:00;;;;;;;18.15;10.73;;;6.90;99.90;;;;;;5084567;28;20058;-45
2022/01/23 15:27:26;;;;;;;17.83;10.73;;;6.90;99.90;;;;;;5067778;28;20432;-46
2022/01/23 15:29:52;;;;;;;18.75;11.10;;;6.90;99.90;;;;;;5057745;28;20028;-43
2022/01/23 15:32:18;;;;;;;18.50;10.65;;;6.90;99.90;;;;;;5059798;28;20071;-45
2022/01/23 15:34:44;;;;;;;17.40;9.68;;;6.90;99.90;;;;;;5060179;28;20017;-45
2022/01/23 15:37:10;;;;;;;21.10;11.70;;;6.90;99.90;;;;;;5054407;28;20016;-45
2022/01/23 15:39:37;;;;;;;17.65;10.10;;;6.90;99.90;;;;;;5051469;28;20168;-45
2022/01/23 15:42:04;;;;;;;20.27;9.88;;;6.90;99.90;;;;;;5059101;28;20485;-45
2022/01/23 15:44:30;;;;;;;17.98;11.45;;;6.90;99.90;;;;;;5060388;28;20032;-44
2022/01/23 15:46:55;;;;;;;14.20;9.25;;;6.80;99.90;;;;;;5055989;28;20021;-44
2022/01/23 15:49:21;;;;;;;16.92;10.98;;;6.80;99.90;;;;;;5056693;28;20064;-44
2022/01/23 15:51:47;;;;;;;15.73;9.90;;;6.80;99.90;;;;;;5064323;28;20055;-44
2022/01/23 15:54:15;;;;;;;20.52;11.48;;;6.80;99.90;;;;;;5064856;28;20056;-44
2022/01/23 15:56:41;;;;;;;19.25;11.02;;;6.80;99.90;;;;;;5062429;28;20024;-44
2022/01/23 15:59:07;;;;;;;18.98;11.07;;;6.80;99.90;;;;;;5061924;28;20041;-45
2022/01/23 16:01:34;;;;;;;19.67;11.02;;;6.80;99.90;;;;;;5057831;28;20120;-45
2022/01/23 16:04:00;;;;;;;19.50;10.95;;;6.80;99.90;;;;;;5061721;28;20175;-45